.
WxDataArchive / Data Records for 2013-07-11
2013-07-10 July 2013 2013-07-12

Data Records for Thursday, 11 July 2013

Time	Temp	Chill	HIndex	Humid	Dewpt	 Wind 	HiWind	WindDir	Rain 	Barom 
-----	----	-----	------	-----	-----	------	------	-------	-----	----- 
00:00	63.7	63.7	63.7	78	56.7	0	0	---	0.00	29.964 
00:05	63.7	63.7	63.7	78	56.7	0	0	---	0.00	29.964 
00:10	63.7	63.7	63.7	77	56.3	0	0	---	0.00	29.964 
00:15	63.9	63.9	63.9	77	56.5	0	0	---	0.00	29.962 
00:20	64.0	64.0	64.0	76	56.3	0	0	---	0.00	29.962 
00:25	64.0	64.0	64.0	76	56.3	0	0	---	0.00	29.962 
00:30	64.0	64.0	64.0	76	56.3	0	0	---	0.00	29.956 
00:35	64.2	64.2	64.2	76	56.5	0	0	---	0.00	29.956 
00:40	64.0	64.0	64.0	76	56.3	0	0	---	0.00	29.956 
00:45	63.9	63.9	63.9	76	56.2	0	0	---	0.00	29.954 
00:50	63.9	63.9	63.9	76	56.2	0	0	---	0.00	29.954 
00:55	63.7	63.7	63.7	77	56.3	0	1	292	0.00	29.954 
01:00	63.7	63.7	63.7	77	56.3	0	1	292	0.00	29.953 
01:05	63.5	63.5	63.5	77	56.2	0	0	---	0.00	29.953 
01:10	63.4	63.4	63.4	77	56.1	0	0	---	0.00	29.953 
01:15	63.4	63.4	63.4	77	56.1	0	1	292	0.00	29.959 
01:20	63.2	63.2	63.2	78	56.2	0	1	292	0.00	29.959 
01:25	63.2	63.2	63.2	78	56.2	0	1	292	0.00	29.959 
01:30	63.1	63.1	63.1	78	56.1	0	1	292	0.00	29.955 
01:35	63.1	63.1	63.1	78	56.1	0	1	292	0.00	29.955 
01:40	63.1	63.1	63.1	78	56.1	0	0	---	0.00	29.955 
01:45	63.1	63.1	63.1	78	56.1	0	1	292	0.00	29.962 
01:50	63.2	63.2	63.2	78	56.2	0	1	292	0.00	29.962 
01:55	63.2	63.2	63.2	78	56.2	0	1	292	0.00	29.962 
02:00	63.2	63.2	63.2	79	56.6	0	1	292	0.00	29.962 
02:05	63.2	63.2	63.2	79	56.6	0	0	---	0.00	29.962 
02:10	63.1	63.1	63.1	79	56.5	0	1	292	0.00	29.962 
02:15	62.9	62.9	62.9	80	56.6	0	1	292	0.00	29.961 
02:20	62.6	62.6	62.6	80	56.3	0	0	---	0.00	29.961 
02:25	62.6	62.6	62.6	81	56.7	0	1	292	0.00	29.961 
02:30	62.4	62.4	62.4	81	56.5	0	1	292	0.00	29.963 
02:35	62.4	62.4	62.4	81	56.5	0	0	---	0.00	29.963 
02:40	62.3	62.3	62.3	81	56.4	0	0	---	0.00	29.963 
02:45	62.1	62.1	62.1	81	56.2	0	0	---	0.00	29.962 
02:50	62.0	62.0	62.0	82	56.4	0	0	---	0.00	29.962 
02:55	61.8	61.8	61.8	82	56.2	0	1	292	0.00	29.962 
03:00	61.8	61.8	61.8	83	56.6	0	0	---	0.00	29.962 
03:05	61.6	61.6	61.6	83	56.4	0	0	---	0.00	29.962 
03:10	61.5	61.5	61.5	83	56.3	0	0	---	0.00	29.962 
03:15	61.5	61.5	61.5	83	56.3	0	0	---	0.00	29.968 
03:20	61.3	61.3	61.3	83	56.1	0	0	---	0.00	29.968 
03:25	61.2	61.2	61.2	84	56.3	0	0	---	0.00	29.968 
03:30	61.2	61.2	61.2	84	56.3	0	0	---	0.00	29.975 
03:35	61.0	61.0	61.0	84	56.1	0	0	---	0.00	29.975 
03:40	60.9	60.9	60.9	84	56.0	0	0	---	0.00	29.975 
03:45	60.9	60.9	60.9	85	56.4	0	0	---	0.00	29.975 
03:50	60.9	60.9	60.9	85	56.4	0	0	---	0.00	29.975 
03:55	60.9	60.9	60.9	85	56.4	0	0	---	0.00	29.975 
04:00	60.9	60.9	60.9	85	56.4	0	0	---	0.00	29.979 
04:05	61.0	61.0	61.0	85	56.5	0	0	---	0.00	29.979 
04:10	61.2	61.2	61.2	85	56.6	0	0	---	0.00	29.979 
04:15	61.3	61.3	61.3	85	56.7	0	0	---	0.00	29.972 
04:20	61.5	61.5	61.5	84	56.6	0	0	---	0.00	29.972 
04:25	61.5	61.5	61.5	84	56.6	0	0	---	0.00	29.972 
04:30	61.5	61.5	61.5	84	56.6	0	0	---	0.00	29.976 
04:35	61.6	61.6	61.6	84	56.7	0	0	---	0.00	29.976 
04:40	61.6	61.6	61.6	84	56.7	0	0	---	0.00	29.976 
04:45	61.6	61.6	61.6	84	56.7	0	0	---	0.00	29.978 
04:50	61.6	61.6	61.6	84	56.7	0	0	---	0.00	29.978 
04:55	61.6	61.6	61.6	84	56.7	0	0	---	0.00	29.978 
05:00	61.6	61.6	61.6	84	56.7	0	0	---	0.00	29.982 
05:05	61.6	61.6	61.6	84	56.7	0	0	---	0.00	29.982 
05:10	61.6	61.6	61.6	84	56.7	0	0	---	0.00	29.982 
05:15	61.6	61.6	61.6	84	56.7	0	1	292	0.00	29.986 
05:20	61.6	61.6	61.6	84	56.7	0	1	292	0.00	29.986 
05:25	61.8	61.8	61.8	83	56.6	0	0	---	0.00	29.986 
05:30	61.8	61.8	61.8	83	56.6	0	0	---	0.00	29.986 
05:35	61.6	61.6	61.6	83	56.4	0	0	---	0.00	29.986 
05:40	61.6	61.6	61.6	83	56.4	0	0	---	0.00	29.986 
05:45	61.5	61.5	61.5	83	56.3	0	1	292	0.00	29.987 
05:50	61.5	61.5	61.5	83	56.3	0	1	292	0.00	29.987 
05:55	61.5	61.5	61.5	84	56.6	0	1	292	0.00	29.987 
06:00	61.3	61.3	61.3	84	56.4	0	1	292	0.00	29.992 
06:05	61.3	61.3	61.3	84	56.4	0	1	292	0.00	29.992 
06:10	61.3	61.3	61.3	83	56.1	0	1	292	0.00	29.992 
06:15	61.3	61.3	61.3	84	56.4	0	1	292	0.00	29.998 
06:20	61.3	61.3	61.3	84	56.4	0	1	292	0.00	29.998 
06:25	61.5	61.5	61.5	83	56.3	0	1	292	0.00	29.998 
06:30	61.5	61.5	61.5	83	56.3	0	1	292	0.00	29.999 
06:35	61.5	61.5	61.5	83	56.3	0	1	292	0.00	29.999 
06:40	61.5	61.5	61.5	83	56.3	0	1	292	0.00	29.999 
06:45	61.5	61.5	61.5	83	56.3	0	1	292	0.00	30.005 
06:50	61.5	61.5	61.5	83	56.3	0	1	292	0.00	30.005 
06:55	61.5	61.5	61.5	83	56.3	0	1	292	0.00	30.005 
07:00	61.5	61.5	61.5	83	56.3	0	0	---	0.00	30.014 
07:05	61.5	61.5	61.5	83	56.3	0	0	---	0.00	30.014 
07:10	61.5	61.5	61.5	83	56.3	0	1	292	0.00	30.014 
07:15	61.6	61.6	61.6	83	56.4	0	1	292	0.00	30.019 
07:20	61.8	61.8	61.8	83	56.6	0	2	292	0.00	30.019 
07:25	62.0	62.0	62.0	83	56.8	0	1	292	0.00	30.019 
07:30	62.1	62.1	62.1	83	56.9	0	1	292	0.00	30.019 
07:35	62.4	62.4	62.4	82	56.8	0	0	---	0.00	30.019 
07:40	62.7	62.7	62.7	82	57.1	0	2	292	0.00	30.019 
07:45	62.9	62.9	62.9	81	57.0	0	1	292	0.00	30.018 
07:50	63.4	63.4	63.4	80	57.1	0	1	292	0.00	30.018 
07:55	63.7	63.7	63.7	79	57.1	0	3	292	0.00	30.018 
08:00	64.0	64.0	64.0	78	57.0	0	2	292	0.00	30.021 
08:05	64.5	64.5	64.5	78	57.5	0	1	292	0.00	30.021 
08:10	64.8	64.8	64.8	77	57.4	0	2	292	0.00	30.021 
08:15	65.6	65.6	65.6	76	57.8	0	3	315	0.00	30.022 
08:20	66.3	66.3	66.3	74	57.8	0	3	315	0.00	30.022 
08:25	66.8	66.8	66.8	73	57.9	0	2	315	0.00	30.022 
08:30	67.4	67.4	67.4	72	58.1	0	4	315	0.00	30.029 
08:35	67.6	67.6	67.6	72	58.2	0	2	315	0.00	30.029 
08:40	67.8	67.8	67.8	71	58.0	0	3	315	0.00	30.029 
08:45	67.8	67.8	67.8	71	58.0	1	4	315	0.00	30.030 
08:50	67.8	67.8	67.8	71	58.0	1	3	315	0.00	30.030 
08:55	67.8	67.8	67.8	70	57.6	0	2	315	0.00	30.030 
09:00	68.1	68.1	68.1	71	58.3	1	3	315	0.00	30.033 
09:05	68.3	68.3	68.3	70	58.1	1	3	315	0.00	30.033 
09:10	68.4	68.4	68.4	71	58.6	1	3	315	0.00	30.033 
09:15	68.6	68.6	68.6	70	58.4	1	3	315	0.00	30.038 
09:20	68.9	68.9	68.9	69	58.3	1	5	158	0.00	30.038 
09:25	69.6	69.6	69.6	70	59.4	0	2	180	0.00	30.038 
09:30	70.4	70.4	70.4	67	58.9	1	3	135	0.00	30.036 
09:35	70.9	70.9	70.9	65	58.5	0	2	135	0.00	30.036 
09:40	70.6	70.6	70.6	64	57.8	1	6	315	0.00	30.036 
09:45	70.8	70.8	70.8	64	58.0	1	5	45	0.00	30.035 
09:50	71.1	71.1	71.1	63	57.9	1	3	135	0.00	30.035 
09:55	71.8	71.8	71.8	62	58.1	2	4	112	0.00	30.035 
10:00	72.1	72.1	72.1	65	59.7	1	4	112	0.00	30.033 
10:05	72.5	72.5	72.5	62	58.7	1	4	112	0.00	30.033 
10:10	73.0	73.0	73.0	61	58.7	1	4	135	0.00	30.033 
10:15	72.8	72.8	72.8	58	57.1	1	5	135	0.00	30.038 
10:20	73.0	73.0	73.0	59	57.8	2	4	112	0.00	30.038 
10:25	72.8	72.8	72.8	59	57.6	2	5	112	0.00	30.038 
10:30	73.0	73.0	73.0	61	58.7	1	4	112	0.00	30.042 
10:35	73.0	73.0	73.0	59	57.8	1	4	135	0.00	30.042 
10:40	73.5	73.5	73.5	60	58.7	1	5	135	0.00	30.042 
10:45	73.5	73.5	73.5	57	57.3	1	4	135	0.00	30.041 
10:50	73.3	73.3	73.3	59	58.1	1	3	315	0.00	30.041 
10:55	73.3	73.3	73.3	56	56.6	2	5	22	0.00	30.041 
11:00	73.5	73.5	73.5	56	56.8	1	3	135	0.00	30.041 
11:05	73.7	73.7	73.7	56	57.0	1	6	112	0.00	30.041 
11:10	73.7	73.7	73.7	58	58.0	1	4	112	0.00	30.041 
11:15	74.2	74.2	74.2	54	56.5	2	6	112	0.00	30.048 
11:20	74.4	74.4	74.4	56	57.7	2	5	202	0.00	30.048 
11:25	74.6	74.6	74.6	56	57.8	1	4	68	0.00	30.048 
11:30	74.7	74.7	74.7	53	56.4	1	6	45	0.00	30.048 
11:35	74.7	74.7	74.7	52	55.9	2	7	68	0.00	30.048 
11:40	74.9	74.9	74.9	54	57.1	1	5	22	0.00	30.048 
11:45	75.1	75.1	77.6	52	56.3	1	5	112	0.00	30.049 
11:50	74.9	74.9	74.9	51	55.5	1	4	112	0.00	30.049 
11:55	74.4	74.4	74.4	51	55.1	2	7	315	0.00	30.049 
12:00	74.4	74.4	74.4	54	56.7	1	4	292	0.00	30.051 
12:05	75.1	75.1	77.6	54	57.3	1	4	112	0.00	30.051 
12:10	75.6	75.6	77.9	54	57.8	1	5	22	0.00	30.051 
12:15	75.3	75.3	77.7	51	55.9	1	4	0	0.00	30.051 
12:20	74.7	74.7	74.7	52	55.9	1	4	338	0.00	30.051 
12:25	74.4	74.4	74.4	52	55.6	2	5	338	0.00	30.051 
12:30	74.4	74.4	74.4	58	58.6	1	4	338	0.00	30.052 
12:35	74.9	74.9	74.9	52	56.1	1	4	135	0.00	30.052 
12:40	75.4	75.4	77.8	52	56.5	2	9	90	0.00	30.052 
12:45	75.8	75.8	78.0	48	54.7	3	6	112	0.00	30.052 
12:50	76.0	76.0	78.1	52	57.1	1	4	112	0.00	30.052 
12:55	75.4	75.4	77.8	51	56.0	1	4	292	0.00	30.052 
13:00	75.6	75.6	77.9	49	55.1	0	3	202	0.00	30.052 
13:05	75.6	75.6	77.9	48	54.5	1	6	338	0.00	30.052 
13:10	75.3	75.3	77.7	46	53.1	0	2	338	0.00	30.052 
13:15	75.4	75.4	77.8	48	54.3	2	5	112	0.00	30.053 
13:20	75.8	75.8	77.9	46	53.5	3	8	90	0.00	30.053 
13:25	76.0	76.0	78.0	47	54.3	1	5	112	0.00	30.053 
13:30	76.3	76.3	78.1	45	53.4	2	4	90	0.00	30.052 
13:35	76.7	76.7	78.4	50	56.6	2	6	112	0.00	30.052 
13:40	76.7	76.7	78.3	46	54.3	3	9	90	0.00	30.052 
13:45	76.8	76.8	78.5	51	57.3	2	5	90	0.00	30.049 
13:50	77.0	77.0	78.5	47	55.2	1	7	112	0.00	30.049 
13:55	77.2	77.2	78.5	45	54.2	1	4	112	0.00	30.049 
14:00	77.0	77.0	78.5	46	54.6	1	5	180	0.00	30.045 
14:05	77.0	77.0	78.5	46	54.6	1	5	90	0.00	30.045 
14:10	77.2	77.2	78.7	51	57.6	1	10	90	0.00	30.045 
14:15	77.6	77.6	78.8	46	55.2	1	4	90	0.00	30.048 
14:20	77.9	77.9	79.0	46	55.4	1	5	68	0.00	30.048 
14:25	78.1	78.1	79.1	46	55.6	1	4	90	0.00	30.048 
14:30	77.6	77.6	78.8	45	54.6	2	10	112	0.00	30.044 
14:35	77.4	77.4	78.7	47	55.6	2	6	90	0.00	30.044 
14:40	77.7	77.7	78.9	47	55.8	1	4	112	0.00	30.044 
14:45	77.9	77.9	78.9	44	54.2	1	5	112	0.00	30.039 
14:50	77.7	77.7	78.9	47	55.8	0	3	68	0.00	30.039 
14:55	77.9	77.9	78.9	45	54.8	1	3	68	0.00	30.039 
15:00	77.6	77.6	79.0	50	57.5	1	9	90	0.00	30.036 
15:05	77.6	77.6	78.8	47	55.8	1	4	90	0.00	30.036 
15:10	77.6	77.6	78.8	45	54.6	2	6	90	0.00	30.036 
15:15	77.0	77.0	78.5	47	55.2	0	6	315	0.00	30.037 
15:20	77.2	77.2	78.6	46	54.8	1	5	135	0.00	30.037 
15:25	77.7	77.7	78.9	47	55.8	1	6	315	0.00	30.037 
15:30	78.3	78.3	79.2	46	55.8	2	5	338	0.00	30.036 
15:35	78.3	78.3	79.2	45	55.2	1	3	315	0.00	30.036 
15:40	78.1	78.1	78.9	43	53.8	2	6	135	0.00	30.036 
15:45	78.1	78.1	79.2	47	56.2	1	5	112	0.00	30.039 
15:50	78.1	78.1	79.0	44	54.4	1	3	270	0.00	30.039 
15:55	78.5	78.5	79.4	46	56.0	1	4	112	0.00	30.039 
16:00	78.6	78.6	79.4	45	55.5	2	6	112	0.00	30.035 
16:05	78.8	78.8	79.4	44	55.0	2	5	90	0.00	30.035 
16:10	78.8	78.8	79.6	47	56.8	2	6	90	0.00	30.035 
16:15	78.5	78.5	79.4	46	56.0	2	5	112	0.00	30.036 
16:20	78.1	78.1	79.0	45	55.0	2	5	112	0.00	30.036 
16:25	78.3	78.3	79.4	49	57.5	1	5	112	0.00	30.036 
16:30	79.0	79.0	79.7	46	56.4	0	3	248	0.00	30.035 
16:35	79.4	79.4	79.8	44	55.6	1	3	112	0.00	30.035 
16:40	79.6	79.6	80.0	45	56.4	0	4	90	0.00	30.035 
16:45	79.4	79.4	79.6	41	53.6	1	3	90	0.00	30.034 
16:50	79.6	79.6	80.0	44	55.7	0	3	90	0.00	30.034 
16:55	79.6	79.6	79.6	39	52.4	2	6	112	0.00	30.034 
17:00	79.6	79.6	79.9	43	55.1	1	5	90	0.00	30.032 
17:05	79.2	79.2	79.3	39	52.1	2	4	90	0.00	30.032 
17:10	79.0	79.0	79.5	43	54.6	1	5	315	0.00	30.032 
17:15	79.4	79.4	79.6	41	53.6	1	4	135	0.00	30.032 
17:20	79.4	79.4	79.5	39	52.3	1	4	315	0.00	30.032 
17:25	79.2	79.2	79.6	43	54.7	1	3	315	0.00	30.032 
17:30	79.2	79.2	79.5	41	53.4	1	5	270	0.00	30.029 
17:35	79.2	79.2	79.5	41	53.4	0	3	292	0.00	30.029 
17:40	79.4	79.4	79.8	43	54.9	0	1	292	0.00	30.029 
17:45	78.8	78.8	79.2	41	53.1	2	5	270	0.00	30.032 
17:50	78.6	78.6	79.2	42	53.6	1	2	338	0.00	30.032 
17:55	78.1	78.1	79.0	44	54.4	0	2	338	0.00	30.032 
18:00	77.6	77.6	78.8	45	54.6	0	1	338	0.00	30.032 
18:05	77.7	77.7	78.7	42	52.8	0	1	338	0.00	30.032 
18:10	77.9	77.9	78.8	42	52.9	0	2	338	0.00	30.032 
18:15	77.2	77.2	78.5	43	52.9	1	3	338	0.00	30.026 
18:20	76.7	76.7	78.2	43	52.5	0	2	338	0.00	30.026 
18:25	76.5	76.5	78.3	47	54.7	0	2	338	0.00	30.026 
18:30	76.7	76.7	78.3	45	53.7	0	3	338	0.00	30.022 
18:35	76.8	76.8	78.4	47	55.0	0	1	338	0.00	30.022 
18:40	76.8	76.8	78.4	46	54.4	0	1	338	0.00	30.022 
18:45	77.0	77.0	78.5	46	54.6	0	1	338	0.00	30.022 
18:50	77.0	77.0	78.4	45	54.0	0	2	338	0.00	30.022 
18:55	77.2	77.2	78.5	45	54.2	0	3	338	0.00	30.022 
19:00	77.2	77.2	78.6	46	54.8	0	1	338	0.00	30.023 
19:05	77.0	77.0	78.5	47	55.2	0	2	338	0.00	30.023 
19:10	77.0	77.0	78.5	46	54.6	0	2	338	0.00	30.023 
19:15	76.8	76.8	78.4	46	54.4	0	2	338	0.00	30.019 
19:20	76.8	76.8	78.4	47	55.0	0	1	338	0.00	30.019 
19:25	76.8	76.8	78.4	47	55.0	0	2	338	0.00	30.019 
19:30	76.7	76.7	78.3	45	53.7	1	3	338	0.00	30.019 
19:35	76.7	76.7	78.3	46	54.3	0	2	338	0.00	30.019 
19:40	76.5	76.5	78.3	47	54.7	0	2	338	0.00	30.019 
19:45	76.3	76.3	78.1	46	54.0	0	3	338	0.00	30.018 
19:50	76.3	76.3	78.2	47	54.6	0	1	338	0.00	30.018 
19:55	76.1	76.1	78.1	47	54.4	0	1	338	0.00	30.018 
20:00	76.1	76.1	78.1	49	55.5	0	1	338	0.00	30.018 
20:05	76.1	76.1	78.1	50	56.1	0	0	---	0.00	30.018 
20:10	76.0	76.0	78.0	48	54.9	0	1	338	0.00	30.018 
20:15	75.8	75.8	78.0	49	55.3	0	1	338	0.00	30.015 
20:20	75.8	75.8	78.0	50	55.8	0	0	---	0.00	30.015 
20:25	75.4	75.4	77.8	50	55.4	0	1	338	0.00	30.015 
20:30	75.1	75.1	77.7	51	55.7	0	0	---	0.00	30.015 
20:35	74.9	74.9	74.9	51	55.5	0	0	---	0.00	30.015 
20:40	74.6	74.6	74.6	52	55.8	0	0	---	0.00	30.015 
20:45	74.4	74.4	74.4	53	56.1	0	0	---	0.00	30.012 
20:50	74.0	74.0	74.0	53	55.8	0	0	---	0.00	30.012 
20:55	73.9	73.9	73.9	54	56.2	0	0	---	0.00	30.012 
21:00	73.7	73.7	73.7	54	56.0	0	1	338	0.00	30.013 
21:05	73.3	73.3	73.3	54	55.6	0	1	338	0.00	30.013 
21:10	73.2	73.2	73.2	55	56.0	0	1	338	0.00	30.013 
21:15	72.8	72.8	72.8	56	56.2	0	1	338	0.00	30.009 
21:20	72.7	72.7	72.7	56	56.1	0	0	---	0.00	30.009 
21:25	72.3	72.3	72.3	58	56.7	0	0	---	0.00	30.009 
21:30	72.0	72.0	72.0	58	56.4	0	0	---	0.00	30.011 
21:35	71.6	71.6	71.6	59	56.5	0	0	---	0.00	30.011 
21:40	71.5	71.5	71.5	60	56.9	0	1	338	0.00	30.011 
21:45	71.3	71.3	71.3	60	56.7	0	0	---	0.00	30.013 
21:50	71.1	71.1	71.1	60	56.5	0	0	---	0.00	30.013 
21:55	70.9	70.9	70.9	61	56.8	0	0	---	0.00	30.013 
22:00	70.8	70.8	70.8	61	56.7	0	0	---	0.00	30.015 
22:05	70.4	70.4	70.4	62	56.7	0	0	---	0.00	30.015 
22:10	70.3	70.3	70.3	62	56.7	0	0	---	0.00	30.015 
22:15	70.1	70.1	70.1	63	56.9	0	0	---	0.00	30.015 
22:20	69.8	69.8	69.8	64	57.1	0	0	---	0.00	30.015 
22:25	69.4	69.4	69.4	65	57.1	0	0	---	0.00	30.015 
22:30	69.3	69.3	69.3	65	57.0	0	0	---	0.00	30.018 
22:35	69.1	69.1	69.1	65	56.8	0	0	---	0.00	30.018 
22:40	69.1	69.1	69.1	65	56.8	0	0	---	0.00	30.018 
22:45	69.3	69.3	69.3	65	57.0	0	1	338	0.00	30.025 
22:50	69.3	69.3	69.3	64	56.6	0	1	338	0.00	30.025 
22:55	69.1	69.1	69.1	64	56.4	0	1	338	0.00	30.025 
23:00	69.1	69.1	69.1	65	56.8	0	1	338	0.00	30.029 
23:05	68.9	68.9	68.9	65	56.6	0	1	338	0.00	30.029 
23:10	68.6	68.6	68.6	65	56.4	0	1	338	0.00	30.029 
23:15	68.4	68.4	68.4	66	56.6	0	1	338	0.00	30.027 
23:20	68.3	68.3	68.3	66	56.5	0	1	338	0.00	30.027 
23:25	68.1	68.1	68.1	67	56.7	0	0	---	0.00	30.027 
23:30	67.9	67.9	67.9	67	56.5	0	1	338	0.00	30.028 
23:35	67.8	67.8	67.8	67	56.4	0	1	338	0.00	30.028 
23:40	67.6	67.6	67.6	68	56.7	0	0	---	0.00	30.028 
23:45	67.4	67.4	67.4	68	56.5	0	1	338	0.00	30.026 
23:50	67.4	67.4	67.4	68	56.5	0	1	338	0.00	30.026 
23:55	67.3	67.3	67.3	69	56.8	0	1	338	0.00	30.026 

CoCoRaHS
IN-AL-39
A2 Web Hosting
Creative Commons License
GoDaddy
search engine by freefind advanced

loaded 2018-11-12 14:49:33 • last modified 2010-11-18 10:43:29
Privacy PolicyDisclaimer
• wx.awcolley.com is powered by PmWiki v.2002016 •
• all content (unless otherwise noted) © 2018 A W Colley